sensor_id;sensor_type;location;lat;lon;timestamp;P1;durP1;ratioP1;P2;durP2;ratioP2
65373;SDS011;52070;53.760;9.678;2022-12-18T00:02:21;26.95;;;11.57;;
65373;SDS011;52070;53.760;9.678;2022-12-18T00:04:48;27.00;;;11.57;;
65373;SDS011;52070;53.760;9.678;2022-12-18T00:07:17;26.67;;;12.23;;
65373;SDS011;52070;53.760;9.678;2022-12-18T00:09:44;24.75;;;11.80;;
65373;SDS011;52070;53.760;9.678;2022-12-18T00:12:12;23.98;;;10.63;;
65373;SDS011;52070;53.760;9.678;2022-12-18T00:14:39;20.60;;;10.98;;
65373;SDS011;52070;53.760;9.678;2022-12-18T00:17:06;22.75;;;11.30;;
65373;SDS011;52070;53.760;9.678;2022-12-18T00:19:33;24.20;;;10.07;;
65373;SDS011;52070;53.760;9.678;2022-12-18T00:22:00;21.35;;;11.13;;
65373;SDS011;52070;53.760;9.678;2022-12-18T00:24:28;21.58;;;10.23;;
65373;SDS011;52070;53.760;9.678;2022-12-18T00:26:55;22.67;;;9.93;;
65373;SDS011;52070;53.760;9.678;2022-12-18T00:29:22;23.33;;;9.90;;
65373;SDS011;52070;53.760;9.678;2022-12-18T00:31:49;23.23;;;10.40;;
65373;SDS011;52070;53.760;9.678;2022-12-18T00:34:16;26.25;;;10.02;;
65373;SDS011;52070;53.760;9.678;2022-12-18T00:36:43;28.25;;;10.50;;
65373;SDS011;52070;53.760;9.678;2022-12-18T00:39:10;22.17;;;10.30;;
65373;SDS011;52070;53.760;9.678;2022-12-18T00:41:39;22.38;;;10.52;;
65373;SDS011;52070;53.760;9.678;2022-12-18T00:44:24;21.83;;;9.43;;
65373;SDS011;52070;53.760;9.678;2022-12-18T00:46:51;20.48;;;9.00;;
65373;SDS011;52070;53.760;9.678;2022-12-18T00:49:18;23.13;;;10.20;;
65373;SDS011;52070;53.760;9.678;2022-12-18T00:51:46;25.15;;;10.23;;
65373;SDS011;52070;53.760;9.678;2022-12-18T00:54:13;18.85;;;9.82;;
65373;SDS011;52070;53.760;9.678;2022-12-18T00:56:42;18.00;;;9.88;;
65373;SDS011;52070;53.760;9.678;2022-12-18T00:59:09;21.80;;;9.63;;
65373;SDS011;52070;53.760;9.678;2022-12-18T01:01:36;18.33;;;9.45;;
65373;SDS011;52070;53.760;9.678;2022-12-18T01:04:05;20.50;;;9.13;;
65373;SDS011;52070;53.760;9.678;2022-12-18T01:06:32;23.55;;;9.48;;
65373;SDS011;52070;53.760;9.678;2022-12-18T01:08:59;15.93;;;8.45;;
65373;SDS011;52070;53.760;9.678;2022-12-18T01:11:26;23.60;;;9.35;;
65373;SDS011;52070;53.760;9.678;2022-12-18T01:13:54;18.77;;;8.95;;
65373;SDS011;52070;53.760;9.678;2022-12-18T01:16:21;22.23;;;9.25;;
65373;SDS011;52070;53.760;9.678;2022-12-18T01:18:51;20.27;;;9.15;;
65373;SDS011;52070;53.760;9.678;2022-12-18T01:21:19;21.58;;;9.13;;
65373;SDS011;52070;53.760;9.678;2022-12-18T01:23:46;21.75;;;8.57;;
65373;SDS011;52070;53.760;9.678;2022-12-18T01:26:18;20.08;;;9.88;;
65373;SDS011;52070;53.760;9.678;2022-12-18T01:28:45;19.85;;;8.52;;
65373;SDS011;52070;53.760;9.678;2022-12-18T01:31:14;19.67;;;8.25;;
65373;SDS011;52070;53.760;9.678;2022-12-18T01:33:44;20.20;;;8.43;;
65373;SDS011;52070;53.760;9.678;2022-12-18T01:36:14;18.60;;;7.70;;
65373;SDS011;52070;53.760;9.678;2022-12-18T01:38:42;17.92;;;8.38;;
65373;SDS011;52070;53.760;9.678;2022-12-18T01:41:10;19.15;;;8.18;;
65373;SDS011;52070;53.760;9.678;2022-12-18T01:43:44;18.85;;;8.25;;
65373;SDS011;52070;53.760;9.678;2022-12-18T01:46:14;17.63;;;8.23;;
65373;SDS011;52070;53.760;9.678;2022-12-18T01:48:41;20.77;;;8.35;;
65373;SDS011;52070;53.760;9.678;2022-12-18T01:51:09;18.98;;;8.20;;
65373;SDS011;52070;53.760;9.678;2022-12-18T01:53:38;19.23;;;8.95;;
65373;SDS011;52070;53.760;9.678;2022-12-18T01:56:07;16.97;;;8.07;;
65373;SDS011;52070;53.760;9.678;2022-12-18T02:01:08;17.70;;;7.50;;
65373;SDS011;52070;53.760;9.678;2022-12-18T02:03:37;21.17;;;7.72;;
65373;SDS011;52070;53.760;9.678;2022-12-18T02:06:07;17.08;;;8.30;;
65373;SDS011;52070;53.760;9.678;2022-12-18T02:08:40;18.55;;;8.13;;
65373;SDS011;52070;53.760;9.678;2022-12-18T02:11:17;17.08;;;7.80;;
65373;SDS011;52070;53.760;9.678;2022-12-18T02:13:52;15.15;;;7.00;;
65373;SDS011;52070;53.760;9.678;2022-12-18T02:16:27;17.52;;;8.02;;
65373;SDS011;52070;53.760;9.678;2022-12-18T02:19:04;17.67;;;7.63;;
65373;SDS011;52070;53.760;9.678;2022-12-18T02:21:36;18.60;;;8.30;;
65373;SDS011;52070;53.760;9.678;2022-12-18T02:24:17;17.77;;;7.25;;
65373;SDS011;52070;53.760;9.678;2022-12-18T02:26:56;18.58;;;7.72;;
65373;SDS011;52070;53.760;9.678;2022-12-18T02:29:26;18.15;;;7.80;;
65373;SDS011;52070;53.760;9.678;2022-12-18T02:31:56;16.67;;;7.50;;
65373;SDS011;52070;53.760;9.678;2022-12-18T02:34:30;19.13;;;8.60;;
65373;SDS011;52070;53.760;9.678;2022-12-18T02:37:00;19.88;;;7.53;;
65373;SDS011;52070;53.760;9.678;2022-12-18T02:39:32;14.40;;;7.25;;
65373;SDS011;52070;53.760;9.678;2022-12-18T02:42:03;17.83;;;7.82;;
65373;SDS011;52070;53.760;9.678;2022-12-18T02:44:33;17.05;;;7.10;;
65373;SDS011;52070;53.760;9.678;2022-12-18T02:47:00;16.30;;;7.05;;
65373;SDS011;52070;53.760;9.678;2022-12-18T02:49:31;18.85;;;7.43;;
65373;SDS011;52070;53.760;9.678;2022-12-18T02:52:05;17.23;;;7.55;;
65373;SDS011;52070;53.760;9.678;2022-12-18T02:54:40;16.30;;;7.55;;
65373;SDS011;52070;53.760;9.678;2022-12-18T02:57:18;13.48;;;6.65;;
65373;SDS011;52070;53.760;9.678;2022-12-18T02:59:54;17.88;;;7.78;;
65373;SDS011;52070;53.760;9.678;2022-12-18T03:02:25;16.90;;;7.10;;
65373;SDS011;52070;53.760;9.678;2022-12-18T03:04:58;19.98;;;7.63;;
65373;SDS011;52070;53.760;9.678;2022-12-18T03:07:33;14.38;;;6.78;;
65373;SDS011;52070;53.760;9.678;2022-12-18T03:10:03;18.55;;;7.30;;
65373;SDS011;52070;53.760;9.678;2022-12-18T03:12:36;17.48;;;7.97;;
65373;SDS011;52070;53.760;9.678;2022-12-18T03:15:08;14.70;;;6.68;;
65373;SDS011;52070;53.760;9.678;2022-12-18T03:17:40;14.98;;;6.55;;
65373;SDS011;52070;53.760;9.678;2022-12-18T03:20:12;15.90;;;7.68;;
65373;SDS011;52070;53.760;9.678;2022-12-18T03:22:41;20.52;;;7.30;;
65373;SDS011;52070;53.760;9.678;2022-12-18T03:25:11;13.65;;;6.80;;
65373;SDS011;52070;53.760;9.678;2022-12-18T03:27:43;14.10;;;6.80;;
65373;SDS011;52070;53.760;9.678;2022-12-18T03:30:15;18.58;;;7.78;;
65373;SDS011;52070;53.760;9.678;2022-12-18T03:32:44;15.45;;;7.40;;
65373;SDS011;52070;53.760;9.678;2022-12-18T03:35:19;19.13;;;7.20;;
65373;SDS011;52070;53.760;9.678;2022-12-18T03:37:50;13.48;;;6.88;;
65373;SDS011;52070;53.760;9.678;2022-12-18T03:40:17;18.48;;;7.30;;
65373;SDS011;52070;53.760;9.678;2022-12-18T03:42:49;16.88;;;7.68;;
65373;SDS011;52070;53.760;9.678;2022-12-18T03:45:20;14.77;;;7.07;;
65373;SDS011;52070;53.760;9.678;2022-12-18T03:47:53;16.98;;;7.30;;
65373;SDS011;52070;53.760;9.678;2022-12-18T03:50:27;18.75;;;7.45;;
65373;SDS011;52070;53.760;9.678;2022-12-18T03:53:00;16.50;;;8.10;;
65373;SDS011;52070;53.760;9.678;2022-12-18T03:55:39;18.83;;;7.53;;
65373;SDS011;52070;53.760;9.678;2022-12-18T03:58:08;18.60;;;8.18;;
65373;SDS011;52070;53.760;9.678;2022-12-18T04:00:37;18.77;;;7.22;;
65373;SDS011;52070;53.760;9.678;2022-12-18T04:03:04;16.02;;;8.02;;
65373;SDS011;52070;53.760;9.678;2022-12-18T04:05:33;18.38;;;7.00;;
65373;SDS011;52070;53.760;9.678;2022-12-18T04:08:02;14.80;;;7.00;;
65373;SDS011;52070;53.760;9.678;2022-12-18T04:10:30;17.63;;;7.25;;
65373;SDS011;52070;53.760;9.678;2022-12-18T04:12:57;16.95;;;7.15;;
65373;SDS011;52070;53.760;9.678;2022-12-18T04:15:26;16.73;;;7.55;;
65373;SDS011;52070;53.760;9.678;2022-12-18T04:17:53;18.63;;;7.43;;
65373;SDS011;52070;53.760;9.678;2022-12-18T04:20:20;14.45;;;7.47;;
65373;SDS011;52070;53.760;9.678;2022-12-18T04:22:47;17.13;;;7.43;;
65373;SDS011;52070;53.760;9.678;2022-12-18T04:25:14;14.32;;;7.18;;
65373;SDS011;52070;53.760;9.678;2022-12-18T04:27:41;16.40;;;7.22;;
65373;SDS011;52070;53.760;9.678;2022-12-18T04:30:08;14.73;;;7.10;;
65373;SDS011;52070;53.760;9.678;2022-12-18T04:32:38;14.32;;;6.80;;
65373;SDS011;52070;53.760;9.678;2022-12-18T04:35:05;14.98;;;6.80;;
65373;SDS011;52070;53.760;9.678;2022-12-18T04:37:35;14.55;;;7.45;;
65373;SDS011;52070;53.760;9.678;2022-12-18T04:40:03;16.52;;;7.22;;
65373;SDS011;52070;53.760;9.678;2022-12-18T04:42:31;19.92;;;6.82;;
65373;SDS011;52070;53.760;9.678;2022-12-18T04:44:59;15.25;;;6.60;;
65373;SDS011;52070;53.760;9.678;2022-12-18T04:47:25;15.80;;;7.07;;
65373;SDS011;52070;53.760;9.678;2022-12-18T04:49:54;15.20;;;6.97;;
65373;SDS011;52070;53.760;9.678;2022-12-18T04:52:21;16.58;;;7.13;;
65373;SDS011;52070;53.760;9.678;2022-12-18T04:54:48;16.63;;;6.63;;
65373;SDS011;52070;53.760;9.678;2022-12-18T04:57:15;12.85;;;5.97;;
65373;SDS011;52070;53.760;9.678;2022-12-18T04:59:43;15.13;;;6.60;;
65373;SDS011;52070;53.760;9.678;2022-12-18T05:02:10;15.90;;;7.10;;
65373;SDS011;52070;53.760;9.678;2022-12-18T05:04:37;14.82;;;6.30;;
65373;SDS011;52070;53.760;9.678;2022-12-18T05:07:07;14.63;;;6.30;;
65373;SDS011;52070;53.760;9.678;2022-12-18T05:09:34;13.68;;;6.55;;
65373;SDS011;52070;53.760;9.678;2022-12-18T05:12:01;14.90;;;6.20;;
65373;SDS011;52070;53.760;9.678;2022-12-18T05:14:28;15.55;;;6.45;;
65373;SDS011;52070;53.760;9.678;2022-12-18T05:16:55;17.95;;;6.88;;
65373;SDS011;52070;53.760;9.678;2022-12-18T05:19:22;18.10;;;6.78;;
65373;SDS011;52070;53.760;9.678;2022-12-18T05:21:49;19.80;;;6.72;;
65373;SDS011;52070;53.760;9.678;2022-12-18T05:24:17;17.10;;;6.60;;
65373;SDS011;52070;53.760;9.678;2022-12-18T05:26:44;13.90;;;6.70;;
65373;SDS011;52070;53.760;9.678;2022-12-18T05:29:11;13.18;;;6.78;;
65373;SDS011;52070;53.760;9.678;2022-12-18T05:31:38;14.02;;;6.32;;
65373;SDS011;52070;53.760;9.678;2022-12-18T05:34:05;14.13;;;6.85;;
65373;SDS011;52070;53.760;9.678;2022-12-18T05:36:33;11.80;;;6.25;;
65373;SDS011;52070;53.760;9.678;2022-12-18T05:39:00;14.85;;;6.75;;
65373;SDS011;52070;53.760;9.678;2022-12-18T05:41:28;13.20;;;6.78;;
65373;SDS011;52070;53.760;9.678;2022-12-18T05:43:55;14.93;;;6.80;;
65373;SDS011;52070;53.760;9.678;2022-12-18T05:46:22;12.23;;;6.43;;
65373;SDS011;52070;53.760;9.678;2022-12-18T05:48:49;22.33;;;7.03;;
65373;SDS011;52070;53.760;9.678;2022-12-18T05:51:17;18.45;;;7.30;;
65373;SDS011;52070;53.760;9.678;2022-12-18T05:53:46;14.90;;;6.82;;
65373;SDS011;52070;53.760;9.678;2022-12-18T05:56:14;13.18;;;7.00;;
65373;SDS011;52070;53.760;9.678;2022-12-18T05:58:44;10.45;;;6.25;;
65373;SDS011;52070;53.760;9.678;2022-12-18T06:01:12;16.00;;;7.03;;
65373;SDS011;52070;53.760;9.678;2022-12-18T06:03:40;15.40;;;6.32;;
65373;SDS011;52070;53.760;9.678;2022-12-18T06:06:14;13.77;;;6.65;;
65373;SDS011;52070;53.760;9.678;2022-12-18T06:08:42;17.27;;;6.32;;
65373;SDS011;52070;53.760;9.678;2022-12-18T06:11:09;14.48;;;6.78;;
65373;SDS011;52070;53.760;9.678;2022-12-18T06:13:36;16.20;;;6.70;;
65373;SDS011;52070;53.760;9.678;2022-12-18T06:16:05;14.30;;;6.80;;
65373;SDS011;52070;53.760;9.678;2022-12-18T06:18:32;12.57;;;6.38;;
65373;SDS011;52070;53.760;9.678;2022-12-18T06:20:59;13.63;;;7.10;;
65373;SDS011;52070;53.760;9.678;2022-12-18T06:23:27;12.48;;;6.55;;
65373;SDS011;52070;53.760;9.678;2022-12-18T06:25:54;15.40;;;6.85;;
65373;SDS011;52070;53.760;9.678;2022-12-18T06:28:21;12.73;;;6.18;;
65373;SDS011;52070;53.760;9.678;2022-12-18T06:30:49;16.60;;;6.97;;
65373;SDS011;52070;53.760;9.678;2022-12-18T06:33:17;11.63;;;5.93;;
65373;SDS011;52070;53.760;9.678;2022-12-18T06:35:44;14.60;;;6.32;;
65373;SDS011;52070;53.760;9.678;2022-12-18T06:38:11;14.15;;;6.93;;
65373;SDS011;52070;53.760;9.678;2022-12-18T06:40:38;15.35;;;6.88;;
65373;SDS011;52070;53.760;9.678;2022-12-18T06:43:05;14.73;;;6.25;;
65373;SDS011;52070;53.760;9.678;2022-12-18T06:45:33;16.83;;;6.60;;
65373;SDS011;52070;53.760;9.678;2022-12-18T06:48:00;13.63;;;5.90;;
65373;SDS011;52070;53.760;9.678;2022-12-18T06:50:29;13.05;;;6.28;;
65373;SDS011;52070;53.760;9.678;2022-12-18T06:52:56;12.10;;;6.22;;
65373;SDS011;52070;53.760;9.678;2022-12-18T06:55:23;10.27;;;5.97;;
65373;SDS011;52070;53.760;9.678;2022-12-18T06:57:50;13.57;;;5.95;;
65373;SDS011;52070;53.760;9.678;2022-12-18T07:00:17;15.40;;;6.18;;
65373;SDS011;52070;53.760;9.678;2022-12-18T07:02:44;10.25;;;5.80;;
65373;SDS011;52070;53.760;9.678;2022-12-18T07:05:11;13.63;;;6.72;;
65373;SDS011;52070;53.760;9.678;2022-12-18T07:07:40;15.07;;;6.70;;
65373;SDS011;52070;53.760;9.678;2022-12-18T07:10:07;14.05;;;6.30;;
65373;SDS011;52070;53.760;9.678;2022-12-18T07:12:34;12.65;;;6.63;;
65373;SDS011;52070;53.760;9.678;2022-12-18T07:15:02;16.20;;;6.50;;
65373;SDS011;52070;53.760;9.678;2022-12-18T07:17:29;16.25;;;6.68;;
65373;SDS011;52070;53.760;9.678;2022-12-18T07:19:56;15.38;;;6.80;;
65373;SDS011;52070;53.760;9.678;2022-12-18T07:22:24;13.75;;;6.30;;
65373;SDS011;52070;53.760;9.678;2022-12-18T07:24:53;12.70;;;6.22;;
65373;SDS011;52070;53.760;9.678;2022-12-18T07:27:20;15.20;;;6.60;;
65373;SDS011;52070;53.760;9.678;2022-12-18T07:29:48;18.88;;;7.18;;
65373;SDS011;52070;53.760;9.678;2022-12-18T07:32:15;14.95;;;7.13;;
65373;SDS011;52070;53.760;9.678;2022-12-18T07:34:41;14.40;;;6.40;;
65373;SDS011;52070;53.760;9.678;2022-12-18T07:37:09;15.90;;;7.07;;
65373;SDS011;52070;53.760;9.678;2022-12-18T07:39:36;12.25;;;6.45;;
65373;SDS011;52070;53.760;9.678;2022-12-18T07:42:07;14.57;;;6.85;;
65373;SDS011;52070;53.760;9.678;2022-12-18T07:44:51;15.40;;;6.85;;
65373;SDS011;52070;53.760;9.678;2022-12-18T07:47:18;13.80;;;6.70;;
65373;SDS011;52070;53.760;9.678;2022-12-18T07:49:45;15.00;;;6.95;;
65373;SDS011;52070;53.760;9.678;2022-12-18T07:52:12;15.85;;;7.47;;
65373;SDS011;52070;53.760;9.678;2022-12-18T07:54:39;13.13;;;6.70;;
65373;SDS011;52070;53.760;9.678;2022-12-18T07:57:08;13.10;;;5.80;;
65373;SDS011;52070;53.760;9.678;2022-12-18T07:59:35;16.30;;;7.07;;
65373;SDS011;52070;53.760;9.678;2022-12-18T08:02:02;15.25;;;6.43;;
65373;SDS011;52070;53.760;9.678;2022-12-18T08:04:29;14.75;;;6.53;;
65373;SDS011;52070;53.760;9.678;2022-12-18T08:06:56;15.48;;;6.97;;
65373;SDS011;52070;53.760;9.678;2022-12-18T08:09:23;14.70;;;6.68;;
65373;SDS011;52070;53.760;9.678;2022-12-18T08:11:50;14.02;;;6.88;;
65373;SDS011;52070;53.760;9.678;2022-12-18T08:14:18;15.23;;;6.75;;
65373;SDS011;52070;53.760;9.678;2022-12-18T08:16:45;15.05;;;6.70;;
65373;SDS011;52070;53.760;9.678;2022-12-18T08:19:12;26.98;;;9.32;;
65373;SDS011;52070;53.760;9.678;2022-12-18T08:21:41;30.40;;;13.35;;
65373;SDS011;52070;53.760;9.678;2022-12-18T08:24:08;25.48;;;10.85;;
65373;SDS011;52070;53.760;9.678;2022-12-18T08:26:36;19.48;;;9.82;;
65373;SDS011;52070;53.760;9.678;2022-12-18T08:29:03;18.08;;;9.07;;
65373;SDS011;52070;53.760;9.678;2022-12-18T08:31:31;20.65;;;8.50;;
65373;SDS011;52070;53.760;9.678;2022-12-18T08:33:58;18.50;;;7.57;;
65373;SDS011;52070;53.760;9.678;2022-12-18T08:36:25;16.50;;;8.20;;
65373;SDS011;52070;53.760;9.678;2022-12-18T08:38:52;18.92;;;8.98;;
65373;SDS011;52070;53.760;9.678;2022-12-18T08:41:20;22.23;;;9.68;;
65373;SDS011;52070;53.760;9.678;2022-12-18T08:43:47;18.15;;;8.30;;
65373;SDS011;52070;53.760;9.678;2022-12-18T08:46:35;19.60;;;8.13;;
65373;SDS011;52070;53.760;9.678;2022-12-18T08:49:03;19.70;;;8.20;;
65373;SDS011;52070;53.760;9.678;2022-12-18T08:51:31;21.45;;;9.07;;
65373;SDS011;52070;53.760;9.678;2022-12-18T08:53:59;20.75;;;9.02;;
65373;SDS011;52070;53.760;9.678;2022-12-18T08:56:26;19.55;;;8.63;;
65373;SDS011;52070;53.760;9.678;2022-12-18T08:58:53;19.42;;;8.27;;
65373;SDS011;52070;53.760;9.678;2022-12-18T09:01:20;16.98;;;7.80;;
65373;SDS011;52070;53.760;9.678;2022-12-18T09:03:50;20.80;;;8.15;;
65373;SDS011;52070;53.760;9.678;2022-12-18T09:06:18;18.77;;;8.23;;
65373;SDS011;52070;53.760;9.678;2022-12-18T09:08:46;17.17;;;7.85;;
65373;SDS011;52070;53.760;9.678;2022-12-18T09:11:14;18.75;;;7.82;;
65373;SDS011;52070;53.760;9.678;2022-12-18T09:13:45;17.92;;;7.72;;
65373;SDS011;52070;53.760;9.678;2022-12-18T09:16:30;17.52;;;8.35;;
65373;SDS011;52070;53.760;9.678;2022-12-18T09:19:21;16.40;;;7.60;;
65373;SDS011;52070;53.760;9.678;2022-12-18T09:22:09;16.42;;;7.78;;
65373;SDS011;52070;53.760;9.678;2022-12-18T09:24:56;17.23;;;7.80;;
65373;SDS011;52070;53.760;9.678;2022-12-18T09:27:43;18.15;;;8.48;;
65373;SDS011;52070;53.760;9.678;2022-12-18T09:30:33;21.05;;;8.85;;
65373;SDS011;52070;53.760;9.678;2022-12-18T09:33:23;16.70;;;7.47;;
65373;SDS011;52070;53.760;9.678;2022-12-18T09:36:13;19.63;;;8.30;;
65373;SDS011;52070;53.760;9.678;2022-12-18T09:38:43;17.13;;;8.13;;
65373;SDS011;52070;53.760;9.678;2022-12-18T09:41:15;15.82;;;8.27;;
65373;SDS011;52070;53.760;9.678;2022-12-18T09:43:53;19.15;;;8.32;;
65373;SDS011;52070;53.760;9.678;2022-12-18T09:46:25;17.70;;;8.18;;
65373;SDS011;52070;53.760;9.678;2022-12-18T09:48:59;14.50;;;7.50;;
65373;SDS011;52070;53.760;9.678;2022-12-18T09:51:30;17.98;;;8.32;;
65373;SDS011;52070;53.760;9.678;2022-12-18T09:54:03;16.13;;;7.50;;
65373;SDS011;52070;53.760;9.678;2022-12-18T09:56:34;15.80;;;7.97;;
65373;SDS011;52070;53.760;9.678;2022-12-18T09:59:03;13.98;;;7.32;;
65373;SDS011;52070;53.760;9.678;2022-12-18T10:01:31;17.90;;;6.70;;
65373;SDS011;52070;53.760;9.678;2022-12-18T10:03:59;15.38;;;6.68;;
65373;SDS011;52070;53.760;9.678;2022-12-18T10:06:26;15.00;;;7.95;;
65373;SDS011;52070;53.760;9.678;2022-12-18T10:09:03;13.75;;;7.60;;
65373;SDS011;52070;53.760;9.678;2022-12-18T10:11:38;14.88;;;7.45;;
65373;SDS011;52070;53.760;9.678;2022-12-18T10:14:12;15.02;;;7.53;;
65373;SDS011;52070;53.760;9.678;2022-12-18T10:16:47;19.02;;;7.68;;
65373;SDS011;52070;53.760;9.678;2022-12-18T10:19:28;12.70;;;7.10;;
65373;SDS011;52070;53.760;9.678;2022-12-18T10:22:07;15.25;;;6.60;;
65373;SDS011;52070;53.760;9.678;2022-12-18T10:24:44;13.57;;;7.28;;
65373;SDS011;52070;53.760;9.678;2022-12-18T10:27:21;18.73;;;7.65;;
65373;SDS011;52070;53.760;9.678;2022-12-18T10:29:51;17.10;;;8.25;;
65373;SDS011;52070;53.760;9.678;2022-12-18T10:32:20;17.40;;;8.43;;
65373;SDS011;52070;53.760;9.678;2022-12-18T10:34:49;19.38;;;9.52;;
65373;SDS011;52070;53.760;9.678;2022-12-18T10:37:19;20.20;;;9.38;;
65373;SDS011;52070;53.760;9.678;2022-12-18T10:40:04;18.25;;;9.07;;
65373;SDS011;52070;53.760;9.678;2022-12-18T10:42:34;16.58;;;8.15;;
65373;SDS011;52070;53.760;9.678;2022-12-18T10:45:02;21.13;;;9.20;;
65373;SDS011;52070;53.760;9.678;2022-12-18T10:47:32;14.57;;;7.57;;
65373;SDS011;52070;53.760;9.678;2022-12-18T10:50:00;17.33;;;7.60;;
65373;SDS011;52070;53.760;9.678;2022-12-18T10:52:29;16.63;;;7.47;;
65373;SDS011;52070;53.760;9.678;2022-12-18T10:54:57;13.10;;;7.63;;
65373;SDS011;52070;53.760;9.678;2022-12-18T10:57:29;14.35;;;7.18;;
65373;SDS011;52070;53.760;9.678;2022-12-18T11:00:22;14.27;;;7.10;;
65373;SDS011;52070;53.760;9.678;2022-12-18T11:02:48;13.52;;;6.90;;
65373;SDS011;52070;53.760;9.678;2022-12-18T11:05:22;15.88;;;7.22;;
65373;SDS011;52070;53.760;9.678;2022-12-18T11:07:55;12.55;;;6.53;;
65373;SDS011;52070;53.760;9.678;2022-12-18T11:10:26;15.07;;;6.83;;
65373;SDS011;52070;53.760;9.678;2022-12-18T11:13:08;17.73;;;7.32;;
65373;SDS011;52070;53.760;9.678;2022-12-18T11:15:36;12.15;;;6.65;;
65373;SDS011;52070;53.760;9.678;2022-12-18T11:18:13;12.50;;;6.65;;
65373;SDS011;52070;53.760;9.678;2022-12-18T11:20:44;13.07;;;6.60;;
65373;SDS011;52070;53.760;9.678;2022-12-18T11:23:19;17.13;;;6.68;;
65373;SDS011;52070;53.760;9.678;2022-12-18T11:25:52;16.45;;;6.43;;
65373;SDS011;52070;53.760;9.678;2022-12-18T11:28:26;14.93;;;6.50;;
65373;SDS011;52070;53.760;9.678;2022-12-18T11:31:09;11.80;;;6.57;;
65373;SDS011;52070;53.760;9.678;2022-12-18T11:33:44;14.82;;;6.32;;
65373;SDS011;52070;53.760;9.678;2022-12-18T11:36:15;13.05;;;6.30;;
65373;SDS011;52070;53.760;9.678;2022-12-18T11:38:45;13.38;;;5.97;;
65373;SDS011;52070;53.760;9.678;2022-12-18T11:41:18;13.90;;;5.68;;
65373;SDS011;52070;53.760;9.678;2022-12-18T11:44:13;14.15;;;5.40;;
65373;SDS011;52070;53.760;9.678;2022-12-18T11:46:45;8.95;;;4.97;;
65373;SDS011;52070;53.760;9.678;2022-12-18T11:49:17;8.90;;;4.90;;
65373;SDS011;52070;53.760;9.678;2022-12-18T11:51:50;10.65;;;5.25;;
65373;SDS011;52070;53.760;9.678;2022-12-18T11:54:23;11.05;;;5.05;;
65373;SDS011;52070;53.760;9.678;2022-12-18T11:56:51;10.95;;;5.22;;
65373;SDS011;52070;53.760;9.678;2022-12-18T11:59:25;10.85;;;5.75;;
65373;SDS011;52070;53.760;9.678;2022-12-18T12:02:03;16.42;;;7.32;;
65373;SDS011;52070;53.760;9.678;2022-12-18T12:04:52;15.38;;;6.75;;
65373;SDS011;52070;53.760;9.678;2022-12-18T12:07:35;12.82;;;6.00;;
65373;SDS011;52070;53.760;9.678;2022-12-18T12:10:13;11.38;;;5.95;;
65373;SDS011;52070;53.760;9.678;2022-12-18T12:12:58;11.75;;;6.50;;
65373;SDS011;52070;53.760;9.678;2022-12-18T12:15:41;11.27;;;6.30;;
65373;SDS011;52070;53.760;9.678;2022-12-18T12:18:16;11.30;;;5.63;;
65373;SDS011;52070;53.760;9.678;2022-12-18T12:20:53;12.32;;;5.47;;
65373;SDS011;52070;53.760;9.678;2022-12-18T12:23:30;12.05;;;5.90;;
65373;SDS011;52070;53.760;9.678;2022-12-18T12:26:08;12.50;;;5.70;;
65373;SDS011;52070;53.760;9.678;2022-12-18T12:28:52;10.65;;;5.68;;
65373;SDS011;52070;53.760;9.678;2022-12-18T12:31:30;15.73;;;5.88;;
65373;SDS011;52070;53.760;9.678;2022-12-18T12:34:11;17.33;;;6.60;;
65373;SDS011;52070;53.760;9.678;2022-12-18T12:36:46;17.13;;;7.33;;
65373;SDS011;52070;53.760;9.678;2022-12-18T12:39:22;18.23;;;8.10;;
65373;SDS011;52070;53.760;9.678;2022-12-18T12:41:55;21.85;;;9.93;;
65373;SDS011;52070;53.760;9.678;2022-12-18T12:44:40;19.77;;;8.55;;
65373;SDS011;52070;53.760;9.678;2022-12-18T12:49:44;19.17;;;8.20;;
65373;SDS011;52070;53.760;9.678;2022-12-18T12:52:14;19.17;;;8.00;;
65373;SDS011;52070;53.760;9.678;2022-12-18T12:54:47;17.45;;;7.80;;
65373;SDS011;52070;53.760;9.678;2022-12-18T12:57:17;19.58;;;8.30;;
65373;SDS011;52070;53.760;9.678;2022-12-18T12:59:52;17.35;;;7.82;;
65373;SDS011;52070;53.760;9.678;2022-12-18T13:02:29;14.48;;;7.28;;
65373;SDS011;52070;53.760;9.678;2022-12-18T13:05:01;17.10;;;7.80;;
65373;SDS011;52070;53.760;9.678;2022-12-18T13:07:32;15.32;;;7.88;;
65373;SDS011;52070;53.760;9.678;2022-12-18T13:10:23;15.23;;;7.70;;
65373;SDS011;52070;53.760;9.678;2022-12-18T13:13:00;18.88;;;8.02;;
65373;SDS011;52070;53.760;9.678;2022-12-18T13:15:32;16.30;;;8.05;;
65373;SDS011;52070;53.760;9.678;2022-12-18T13:18:04;19.23;;;8.15;;
65373;SDS011;52070;53.760;9.678;2022-12-18T13:20:38;16.45;;;8.13;;
65373;SDS011;52070;53.760;9.678;2022-12-18T13:25:57;17.23;;;7.75;;
65373;SDS011;52070;53.760;9.678;2022-12-18T13:34:34;14.85;;;7.93;;
65373;SDS011;52070;53.760;9.678;2022-12-18T13:43:24;14.40;;;7.25;;
65373;SDS011;52070;53.760;9.678;2022-12-18T13:46:04;14.93;;;6.97;;
65373;SDS011;52070;53.760;9.678;2022-12-18T13:48:34;13.85;;;7.47;;
65373;SDS011;52070;53.760;9.678;2022-12-18T13:51:04;16.88;;;6.85;;
65373;SDS011;52070;53.760;9.678;2022-12-18T13:53:34;12.32;;;6.43;;
65373;SDS011;52070;53.760;9.678;2022-12-18T13:56:05;17.55;;;7.15;;
65373;SDS011;52070;53.760;9.678;2022-12-18T13:58:32;14.65;;;7.20;;
65373;SDS011;52070;53.760;9.678;2022-12-18T14:00:59;16.15;;;6.78;;
65373;SDS011;52070;53.760;9.678;2022-12-18T14:03:30;13.65;;;7.32;;
65373;SDS011;52070;53.760;9.678;2022-12-18T14:06:01;14.70;;;6.97;;
65373;SDS011;52070;53.760;9.678;2022-12-18T14:08:35;16.35;;;6.70;;
65373;SDS011;52070;53.760;9.678;2022-12-18T14:11:05;12.73;;;6.97;;
65373;SDS011;52070;53.760;9.678;2022-12-18T14:13:33;15.95;;;7.53;;
65373;SDS011;52070;53.760;9.678;2022-12-18T14:16:04;14.40;;;7.18;;
65373;SDS011;52070;53.760;9.678;2022-12-18T14:18:41;12.87;;;7.10;;
65373;SDS011;52070;53.760;9.678;2022-12-18T14:21:17;15.95;;;7.10;;
65373;SDS011;52070;53.760;9.678;2022-12-18T14:23:46;18.38;;;6.88;;
65373;SDS011;52070;53.760;9.678;2022-12-18T14:26:20;17.38;;;7.90;;
65373;SDS011;52070;53.760;9.678;2022-12-18T14:28:49;15.95;;;7.50;;
65373;SDS011;52070;53.760;9.678;2022-12-18T14:31:17;14.82;;;7.50;;
65373;SDS011;52070;53.760;9.678;2022-12-18T14:33:47;15.90;;;7.85;;
65373;SDS011;52070;53.760;9.678;2022-12-18T14:36:15;15.93;;;7.78;;
65373;SDS011;52070;53.760;9.678;2022-12-18T14:38:47;16.33;;;7.97;;
65373;SDS011;52070;53.760;9.678;2022-12-18T14:41:16;17.20;;;7.88;;
65373;SDS011;52070;53.760;9.678;2022-12-18T14:43:45;17.50;;;8.35;;
65373;SDS011;52070;53.760;9.678;2022-12-18T14:46:30;20.80;;;8.77;;
65373;SDS011;52070;53.760;9.678;2022-12-18T14:49:02;23.60;;;9.25;;
65373;SDS011;52070;53.760;9.678;2022-12-18T14:51:32;23.90;;;9.98;;
65373;SDS011;52070;53.760;9.678;2022-12-18T14:54:01;20.98;;;9.32;;
65373;SDS011;52070;53.760;9.678;2022-12-18T14:56:30;24.50;;;10.13;;
65373;SDS011;52070;53.760;9.678;2022-12-18T14:58:59;21.25;;;9.35;;
65373;SDS011;52070;53.760;9.678;2022-12-18T15:01:29;25.23;;;10.57;;
65373;SDS011;52070;53.760;9.678;2022-12-18T15:03:58;29.87;;;10.03;;
65373;SDS011;52070;53.760;9.678;2022-12-18T15:06:29;24.33;;;9.98;;
65373;SDS011;52070;53.760;9.678;2022-12-18T15:08:58;23.63;;;10.52;;
65373;SDS011;52070;53.760;9.678;2022-12-18T15:14:21;25.50;;;10.98;;
65373;SDS011;52070;53.760;9.678;2022-12-18T15:16:50;27.27;;;10.57;;
65373;SDS011;52070;53.760;9.678;2022-12-18T15:19:19;27.63;;;11.43;;